sensor_id;sensor_type;location;lat;lon;timestamp;pressure;altitude;pressure_sealevel;temperature;humidity
53719;BME280;39616;48.872;9.390;2024-02-26T00:01:03;96454.94;;;7.43;65.57
53719;BME280;39616;48.872;9.390;2024-02-26T00:03:33;96447.81;;;7.47;64.84
53719;BME280;39616;48.872;9.390;2024-02-26T00:06:08;96447.91;;;7.51;64.78
53719;BME280;39616;48.872;9.390;2024-02-26T00:08:38;96462.03;;;7.57;64.70
53719;BME280;39616;48.872;9.390;2024-02-26T00:11:08;96466.16;;;7.54;64.86
53719;BME280;39616;48.872;9.390;2024-02-26T00:13:39;96463.81;;;7.53;64.49
53719;BME280;39616;48.872;9.390;2024-02-26T00:16:09;96463.47;;;7.54;63.97
53719;BME280;39616;48.872;9.390;2024-02-26T00:18:39;96466.16;;;7.54;64.26
53719;BME280;39616;48.872;9.390;2024-02-26T00:21:09;96461.25;;;7.56;63.99
53719;BME280;39616;48.872;9.390;2024-02-26T00:23:40;96461.09;;;7.53;64.08
53719;BME280;39616;48.872;9.390;2024-02-26T00:26:10;96457.13;;;7.50;63.80
53719;BME280;39616;48.872;9.390;2024-02-26T00:28:41;96468.59;;;7.38;64.60
53719;BME280;39616;48.872;9.390;2024-02-26T00:31:11;96468.78;;;7.33;64.92
53719;BME280;39616;48.872;9.390;2024-02-26T00:33:41;96470.16;;;7.39;63.64
53719;BME280;39616;48.872;9.390;2024-02-26T00:36:12;96467.94;;;7.33;63.86
53719;BME280;39616;48.872;9.390;2024-02-26T00:38:42;96465.78;;;7.26;63.67
53719;BME280;39616;48.872;9.390;2024-02-26T00:41:15;96459.75;;;7.20;64.81
53719;BME280;39616;48.872;9.390;2024-02-26T00:43:45;96456.75;;;7.22;64.17
53719;BME280;39616;48.872;9.390;2024-02-26T00:46:15;96456.75;;;7.22;64.42
53719;BME280;39616;48.872;9.390;2024-02-26T00:48:46;96453.41;;;7.16;64.04
53719;BME280;39616;48.872;9.390;2024-02-26T00:51:16;96450.06;;;7.19;63.62
53719;BME280;39616;48.872;9.390;2024-02-26T00:53:46;96455.13;;;7.21;63.34
53719;BME280;39616;48.872;9.390;2024-02-26T00:56:17;96452.13;;;7.14;64.15
53719;BME280;39616;48.872;9.390;2024-02-26T00:58:47;96451.34;;;7.05;64.47
53719;BME280;39616;48.872;9.390;2024-02-26T01:01:17;96450.41;;;7.00;64.49
53719;BME280;39616;48.872;9.390;2024-02-26T01:03:48;96452.00;;;7.01;64.34
53719;BME280;39616;48.872;9.390;2024-02-26T01:06:18;96449.94;;;6.98;64.45
53719;BME280;39616;48.872;9.390;2024-02-26T01:08:48;96450.09;;;7.02;64.06
53719;BME280;39616;48.872;9.390;2024-02-26T01:11:18;96446.13;;;6.99;64.55
53719;BME280;39616;48.872;9.390;2024-02-26T01:13:49;96445.66;;;6.97;64.73
53719;BME280;39616;48.872;9.390;2024-02-26T01:16:23;96443.28;;;6.96;64.69
53719;BME280;39616;48.872;9.390;2024-02-26T01:18:54;96450.56;;;6.95;64.77
53719;BME280;39616;48.872;9.390;2024-02-26T01:21:24;96445.50;;;6.94;65.23
53719;BME280;39616;48.872;9.390;2024-02-26T01:23:54;96456.91;;;6.91;66.05
53719;BME280;39616;48.872;9.390;2024-02-26T01:26:24;96457.53;;;6.88;64.78
53719;BME280;39616;48.872;9.390;2024-02-26T01:28:55;96459.44;;;6.87;65.67
53719;BME280;39616;48.872;9.390;2024-02-26T01:31:25;96458.50;;;6.83;66.29
53719;BME280;39616;48.872;9.390;2024-02-26T01:33:56;96460.25;;;6.79;66.05
53719;BME280;39616;48.872;9.390;2024-02-26T01:36:26;96448.69;;;6.78;65.91
53719;BME280;39616;48.872;9.390;2024-02-26T01:38:56;96455.66;;;6.80;66.01
53719;BME280;39616;48.872;9.390;2024-02-26T01:41:27;96454.84;;;6.79;66.25
53719;BME280;39616;48.872;9.390;2024-02-26T01:43:57;96451.53;;;6.73;67.19
53719;BME280;39616;48.872;9.390;2024-02-26T01:46:28;96443.59;;;6.68;66.35
53719;BME280;39616;48.872;9.390;2024-02-26T01:48:59;96448.38;;;6.71;67.39
53719;BME280;39616;48.872;9.390;2024-02-26T01:51:32;96451.34;;;6.70;66.90
53719;BME280;39616;48.872;9.390;2024-02-26T01:54:03;96434.75;;;6.68;66.82
53719;BME280;39616;48.872;9.390;2024-02-26T01:56:35;96452.97;;;6.71;66.95
53719;BME280;39616;48.872;9.390;2024-02-26T01:59:07;96461.34;;;6.69;66.61
53719;BME280;39616;48.872;9.390;2024-02-26T02:01:39;96449.31;;;6.67;66.55
53719;BME280;39616;48.872;9.390;2024-02-26T02:04:12;96453.41;;;6.73;66.61
53719;BME280;39616;48.872;9.390;2024-02-26T02:06:45;96455.97;;;6.69;66.07
53719;BME280;39616;48.872;9.390;2024-02-26T02:09:15;96467.06;;;6.76;66.21
53719;BME280;39616;48.872;9.390;2024-02-26T02:11:46;96470.06;;;6.75;65.88
53719;BME280;39616;48.872;9.390;2024-02-26T02:14:18;96477.66;;;6.73;66.10
53719;BME280;39616;48.872;9.390;2024-02-26T02:16:49;96479.72;;;6.76;65.73
53719;BME280;39616;48.872;9.390;2024-02-26T02:19:19;96481.00;;;6.78;65.87
53719;BME280;39616;48.872;9.390;2024-02-26T02:21:49;96477.66;;;6.73;66.85
53719;BME280;39616;48.872;9.390;2024-02-26T02:24:19;96475.59;;;6.70;66.74
53719;BME280;39616;48.872;9.390;2024-02-26T02:26:50;96485.28;;;6.71;66.85
53719;BME280;39616;48.872;9.390;2024-02-26T02:29:21;96493.38;;;6.71;67.18
53719;BME280;39616;48.872;9.390;2024-02-26T02:31:51;96477.50;;;6.69;67.28
53719;BME280;39616;48.872;9.390;2024-02-26T02:34:22;96496.97;;;6.66;68.29
53719;BME280;39616;48.872;9.390;2024-02-26T02:36:53;96494.78;;;6.60;69.29
53719;BME280;39616;48.872;9.390;2024-02-26T02:39:24;96486.22;;;6.49;70.18
53719;BME280;39616;48.872;9.390;2024-02-26T02:41:54;96495.69;;;6.46;70.88
53719;BME280;39616;48.872;9.390;2024-02-26T02:44:24;96500.13;;;6.42;70.95
53719;BME280;39616;48.872;9.390;2024-02-26T02:46:55;96498.56;;;6.50;70.16
53719;BME280;39616;48.872;9.390;2024-02-26T02:49:25;96498.88;;;6.48;71.10
53719;BME280;39616;48.872;9.390;2024-02-26T02:51:56;96508.03;;;6.47;71.47
53719;BME280;39616;48.872;9.390;2024-02-26T02:54:27;96502.50;;;6.44;70.77
53719;BME280;39616;48.872;9.390;2024-02-26T02:56:58;96497.94;;;6.44;71.65
53719;BME280;39616;48.872;9.390;2024-02-26T02:59:28;96502.19;;;6.45;71.71
53719;BME280;39616;48.872;9.390;2024-02-26T03:01:58;96504.56;;;6.47;72.76
53719;BME280;39616;48.872;9.390;2024-02-26T03:04:29;96509.16;;;6.46;72.29
53719;BME280;39616;48.872;9.390;2024-02-26T03:06:59;96502.19;;;6.45;71.90
53719;BME280;39616;48.872;9.390;2024-02-26T03:09:30;96492.53;;;6.62;69.33
53719;BME280;39616;48.872;9.390;2024-02-26T03:12:00;96508.09;;;6.65;70.28
53719;BME280;39616;48.872;9.390;2024-02-26T03:14:31;96509.03;;;6.60;71.73
53719;BME280;39616;48.872;9.390;2024-02-26T03:17:01;96515.22;;;6.52;72.37
53719;BME280;39616;48.872;9.390;2024-02-26T03:19:32;96505.50;;;6.42;73.61
53719;BME280;39616;48.872;9.390;2024-02-26T03:22:02;96514.53;;;6.38;74.25
53719;BME280;39616;48.872;9.390;2024-02-26T03:24:32;96520.56;;;6.43;73.97
53719;BME280;39616;48.872;9.390;2024-02-26T03:27:02;96524.97;;;6.39;74.64
53719;BME280;39616;48.872;9.390;2024-02-26T03:29:35;96523.53;;;6.33;75.39
53719;BME280;39616;48.872;9.390;2024-02-26T03:32:06;96530.38;;;6.39;74.21
53719;BME280;39616;48.872;9.390;2024-02-26T03:34:36;96519.13;;;6.37;74.93
53719;BME280;39616;48.872;9.390;2024-02-26T03:37:09;96520.03;;;6.33;75.27
53719;BME280;39616;48.872;9.390;2024-02-26T03:39:40;96514.84;;;6.36;73.90
53719;BME280;39616;48.872;9.390;2024-02-26T03:42:11;96518.31;;;6.37;74.61
53719;BME280;39616;48.872;9.390;2024-02-26T03:44:41;96512.94;;;6.37;74.21
53719;BME280;39616;48.872;9.390;2024-02-26T03:47:11;96514.53;;;6.38;73.83
53719;BME280;39616;48.872;9.390;2024-02-26T03:49:42;96506.13;;;6.39;71.41
53719;BME280;39616;48.872;9.390;2024-02-26T03:52:12;96511.69;;;6.43;71.57
53719;BME280;39616;48.872;9.390;2024-02-26T03:54:43;96509.94;;;6.47;70.89
53719;BME280;39616;48.872;9.390;2024-02-26T03:57:13;96509.78;;;6.43;71.50
53719;BME280;39616;48.872;9.390;2024-02-26T03:59:43;96507.09;;;6.43;71.96
53719;BME280;39616;48.872;9.390;2024-02-26T04:02:13;96501.69;;;6.43;72.09
53719;BME280;39616;48.872;9.390;2024-02-26T04:04:44;96492.84;;;6.34;72.97
53719;BME280;39616;48.872;9.390;2024-02-26T04:07:14;96481.91;;;6.31;74.10
53719;BME280;39616;48.872;9.390;2024-02-26T04:09:44;96480.63;;;6.28;75.01
53719;BME280;39616;48.872;9.390;2024-02-26T04:12:15;96478.19;;;6.18;75.94
53719;BME280;39616;48.872;9.390;2024-02-26T04:14:45;96471.22;;;6.08;76.76
53719;BME280;39616;48.872;9.390;2024-02-26T04:17:15;96470.44;;;6.08;78.23
53719;BME280;39616;48.872;9.390;2024-02-26T04:19:45;96469.44;;;6.03;78.03
53719;BME280;39616;48.872;9.390;2024-02-26T04:22:16;96474.19;;;5.98;78.60
53719;BME280;39616;48.872;9.390;2024-02-26T04:24:46;96476.56;;;5.99;78.46
53719;BME280;39616;48.872;9.390;2024-02-26T04:27:16;96479.25;;;5.99;83.00
53719;BME280;39616;48.872;9.390;2024-02-26T04:29:47;96479.66;;;5.84;82.64
53719;BME280;39616;48.872;9.390;2024-02-26T04:32:17;96487.41;;;5.86;81.86
53719;BME280;39616;48.872;9.390;2024-02-26T04:34:47;96480.59;;;5.88;82.07
53719;BME280;39616;48.872;9.390;2024-02-26T04:37:18;96483.91;;;5.85;82.46
53719;BME280;39616;48.872;9.390;2024-02-26T04:39:48;96483.00;;;5.90;79.68
53719;BME280;39616;48.872;9.390;2024-02-26T04:42:18;96477.81;;;5.93;80.69
53719;BME280;39616;48.872;9.390;2024-02-26T04:44:49;96473.81;;;5.91;80.43
53719;BME280;39616;48.872;9.390;2024-02-26T04:47:19;96471.91;;;5.91;79.93
53719;BME280;39616;48.872;9.390;2024-02-26T04:49:52;96472.44;;;5.93;79.92
53719;BME280;39616;48.872;9.390;2024-02-26T04:52:22;96474.81;;;5.95;79.48
53719;BME280;39616;48.872;9.390;2024-02-26T04:54:53;96469.22;;;5.91;80.86
53719;BME280;39616;48.872;9.390;2024-02-26T04:57:23;96461.47;;;5.90;80.73
53719;BME280;39616;48.872;9.390;2024-02-26T04:59:53;96453.63;;;5.93;80.91
53719;BME280;39616;48.872;9.390;2024-02-26T05:02:24;96468.50;;;5.99;79.87
53719;BME280;39616;48.872;9.390;2024-02-26T05:04:54;96449.38;;;6.01;79.66
53719;BME280;39616;48.872;9.390;2024-02-26T05:07:24;96448.09;;;6.07;79.76
53719;BME280;39616;48.872;9.390;2024-02-26T05:09:55;96441.94;;;6.07;80.69
53719;BME280;39616;48.872;9.390;2024-02-26T05:12:26;96450.31;;;6.05;80.85
53719;BME280;39616;48.872;9.390;2024-02-26T05:14:56;96444.16;;;6.04;80.76
53719;BME280;39616;48.872;9.390;2024-02-26T05:17:26;96448.44;;;6.14;80.10
53719;BME280;39616;48.872;9.390;2024-02-26T05:19:56;96445.91;;;6.18;80.04
53719;BME280;39616;48.872;9.390;2024-02-26T05:22:27;96447.19;;;6.29;78.77
53719;BME280;39616;48.872;9.390;2024-02-26T05:24:57;96446.28;;;6.34;78.56
53719;BME280;39616;48.872;9.390;2024-02-26T05:27:27;96451.00;;;6.37;78.35
53719;BME280;39616;48.872;9.390;2024-02-26T05:29:58;96441.38;;;6.44;77.31
53719;BME280;39616;48.872;9.390;2024-02-26T05:32:28;96442.00;;;6.41;78.22
53719;BME280;39616;48.872;9.390;2024-02-26T05:34:58;96445.66;;;6.45;78.02
53719;BME280;39616;48.872;9.390;2024-02-26T05:37:29;96457.84;;;6.51;78.04
53719;BME280;39616;48.872;9.390;2024-02-26T05:39:59;96455.16;;;6.51;78.78
53719;BME280;39616;48.872;9.390;2024-02-26T05:42:30;96461.34;;;6.52;79.53
53719;BME280;39616;48.872;9.390;2024-02-26T05:45:00;96469.72;;;6.50;80.47
53719;BME280;39616;48.872;9.390;2024-02-26T05:47:36;96469.72;;;6.50;80.12
53719;BME280;39616;48.872;9.390;2024-02-26T05:50:06;96477.50;;;6.52;80.60
53719;BME280;39616;48.872;9.390;2024-02-26T05:52:37;96485.09;;;6.59;80.72
53719;BME280;39616;48.872;9.390;2024-02-26T05:55:10;96493.66;;;6.52;80.02
53719;BME280;39616;48.872;9.390;2024-02-26T05:57:41;96498.72;;;6.45;81.03
53719;BME280;39616;48.872;9.390;2024-02-26T06:00:12;96512.31;;;6.40;82.05
53719;BME280;39616;48.872;9.390;2024-02-26T06:02:42;96522.28;;;6.39;82.80
53719;BME280;39616;48.872;9.390;2024-02-26T06:05:12;96522.91;;;6.36;83.55
53719;BME280;39616;48.872;9.390;2024-02-26T06:07:43;96543.22;;;6.42;83.65
53719;BME280;39616;48.872;9.390;2024-02-26T06:10:13;96541.75;;;6.36;85.04
53719;BME280;39616;48.872;9.390;2024-02-26T06:12:44;96536.19;;;6.24;87.91
53719;BME280;39616;48.872;9.390;2024-02-26T06:15:14;96542.97;;;6.21;91.42
53719;BME280;39616;48.872;9.390;2024-02-26T06:17:44;96545.63;;;6.13;94.88
53719;BME280;39616;48.872;9.390;2024-02-26T06:20:15;96545.91;;;6.02;98.50
53719;BME280;39616;48.872;9.390;2024-02-26T06:22:45;96534.59;;;5.92;100.00
53719;BME280;39616;48.872;9.390;2024-02-26T06:25:15;96534.41;;;5.88;100.00
53719;BME280;39616;48.872;9.390;2024-02-26T06:27:46;96546.72;;;5.80;100.00
53719;BME280;39616;48.872;9.390;2024-02-26T06:30:16;96555.72;;;5.76;100.00
53719;BME280;39616;48.872;9.390;2024-02-26T06:32:46;96568.97;;;5.72;100.00
53719;BME280;39616;48.872;9.390;2024-02-26T06:35:17;96573.06;;;5.70;100.00
53719;BME280;39616;48.872;9.390;2024-02-26T06:37:47;96564.34;;;5.64;100.00
53719;BME280;39616;48.872;9.390;2024-02-26T06:40:20;96561.16;;;5.62;100.00
53719;BME280;39616;48.872;9.390;2024-02-26T06:42:51;96555.97;;;5.66;100.00
53719;BME280;39616;48.872;9.390;2024-02-26T06:45:22;96551.09;;;5.68;100.00
53719;BME280;39616;48.872;9.390;2024-02-26T06:47:52;96557.53;;;5.67;100.00
53719;BME280;39616;48.872;9.390;2024-02-26T06:50:22;96564.00;;;5.57;100.00
53719;BME280;39616;48.872;9.390;2024-02-26T06:52:52;96564.78;;;5.57;100.00
53719;BME280;39616;48.872;9.390;2024-02-26T06:55:23;96575.41;;;5.63;100.00
53719;BME280;39616;48.872;9.390;2024-02-26T06:57:53;96571.63;;;5.64;100.00
53719;BME280;39616;48.872;9.390;2024-02-26T07:00:23;96574.50;;;5.67;100.00
53719;BME280;39616;48.872;9.390;2024-02-26T07:02:54;96581.63;;;5.72;100.00
53719;BME280;39616;48.872;9.390;2024-02-26T07:05:24;96590.06;;;5.79;100.00
53719;BME280;39616;48.872;9.390;2024-02-26T07:07:54;96586.88;;;5.77;100.00
53719;BME280;39616;48.872;9.390;2024-02-26T07:10:24;96597.81;;;5.80;100.00
53719;BME280;39616;48.872;9.390;2024-02-26T07:12:55;96592.63;;;5.84;100.00
53719;BME280;39616;48.872;9.390;2024-02-26T07:15:25;96598.19;;;5.88;100.00
53719;BME280;39616;48.872;9.390;2024-02-26T07:17:55;96605.34;;;5.92;100.00
53719;BME280;39616;48.872;9.390;2024-02-26T07:20:26;96604.75;;;5.95;100.00
53719;BME280;39616;48.872;9.390;2024-02-26T07:22:57;96600.34;;;5.99;100.00
53719;BME280;39616;48.872;9.390;2024-02-26T07:25:27;96602.13;;;6.04;100.00
53719;BME280;39616;48.872;9.390;2024-02-26T07:27:57;96604.50;;;6.05;100.00
53719;BME280;39616;48.872;9.390;2024-02-26T07:30:28;96607.53;;;6.13;100.00
53719;BME280;39616;48.872;9.390;2024-02-26T07:32:58;96607.81;;;6.11;100.00
53719;BME280;39616;48.872;9.390;2024-02-26T07:35:28;96602.63;;;6.15;100.00
53719;BME280;39616;48.872;9.390;2024-02-26T07:37:59;96603.91;;;6.17;100.00
53719;BME280;39616;48.872;9.390;2024-02-26T07:40:29;96612.94;;;6.21;99.54
53719;BME280;39616;48.872;9.390;2024-02-26T07:42:59;96621.69;;;6.27;100.00
53719;BME280;39616;48.872;9.390;2024-02-26T07:45:30;96618.84;;;6.32;99.43
53719;BME280;39616;48.872;9.390;2024-02-26T07:48:00;96621.44;;;6.37;99.28
53719;BME280;39616;48.872;9.390;2024-02-26T07:50:30;96620.78;;;6.40;99.10
53719;BME280;39616;48.872;9.390;2024-02-26T07:53:01;96619.53;;;6.38;99.19
53719;BME280;39616;48.872;9.390;2024-02-26T07:55:31;96626.00;;;6.37;99.28
53719;BME280;39616;48.872;9.390;2024-02-26T07:58:02;96627.78;;;6.41;100.00
53719;BME280;39616;48.872;9.390;2024-02-26T08:00:32;96621.44;;;6.37;100.00
53719;BME280;39616;48.872;9.390;2024-02-26T08:03:03;96625.53;;;6.35;100.00
53719;BME280;39616;48.872;9.390;2024-02-26T08:05:33;96637.44;;;6.42;100.00
53719;BME280;39616;48.872;9.390;2024-02-26T08:08:04;96629.53;;;6.46;100.00
53719;BME280;39616;48.872;9.390;2024-02-26T08:10:34;96631.63;;;6.49;100.00
53719;BME280;39616;48.872;9.390;2024-02-26T08:13:05;96636.41;;;6.61;100.00
53719;BME280;39616;48.872;9.390;2024-02-26T08:15:35;96636.72;;;6.59;100.00
53719;BME280;39616;48.872;9.390;2024-02-26T08:18:07;96632.31;;;6.72;100.00
53719;BME280;39616;48.872;9.390;2024-02-26T08:20:37;96632.16;;;6.77;100.00
53719;BME280;39616;48.872;9.390;2024-02-26T08:23:08;96631.22;;;6.73;100.00
53719;BME280;39616;48.872;9.390;2024-02-26T08:25:38;96637.56;;;6.77;100.00
53719;BME280;39616;48.872;9.390;2024-02-26T08:28:08;96641.38;;;6.85;100.00
53719;BME280;39616;48.872;9.390;2024-02-26T08:30:41;96635.53;;;6.83;100.00
53719;BME280;39616;48.872;9.390;2024-02-26T08:33:11;96636.00;;;6.85;100.00
53719;BME280;39616;48.872;9.390;2024-02-26T08:35:43;96634.91;;;6.86;100.00
53719;BME280;39616;48.872;9.390;2024-02-26T08:38:13;96639.03;;;6.92;100.00
53719;BME280;39616;48.872;9.390;2024-02-26T08:40:44;96634.47;;;7.01;100.00
53719;BME280;39616;48.872;9.390;2024-02-26T08:43:14;96624.97;;;7.04;100.00
53719;BME280;39616;48.872;9.390;2024-02-26T08:45:44;96623.34;;;7.02;100.00
53719;BME280;39616;48.872;9.390;2024-02-26T08:48:15;96622.91;;;7.09;100.00
53719;BME280;39616;48.872;9.390;2024-02-26T08:50:45;96622.59;;;7.11;100.00
53719;BME280;39616;48.872;9.390;2024-02-26T08:53:16;96619.41;;;7.17;100.00
53719;BME280;39616;48.872;9.390;2024-02-26T08:55:46;96632.59;;;7.19;100.00
53719;BME280;39616;48.872;9.390;2024-02-26T08:58:16;96633.53;;;7.23;100.00
53719;BME280;39616;48.872;9.390;2024-02-26T09:00:47;96640.38;;;7.29;100.00
53719;BME280;39616;48.872;9.390;2024-02-26T09:03:17;96643.72;;;7.35;100.00
53719;BME280;39616;48.872;9.390;2024-02-26T09:05:48;96634.38;;;7.41;99.40
53719;BME280;39616;48.872;9.390;2024-02-26T09:08:18;96637.22;;;7.44;98.19
53719;BME280;39616;48.872;9.390;2024-02-26T09:10:49;96642.44;;;7.49;98.45
53719;BME280;39616;48.872;9.390;2024-02-26T09:13:22;96632.47;;;7.59;98.80
53719;BME280;39616;48.872;9.390;2024-02-26T09:15:53;96629.25;;;7.65;96.55
53719;BME280;39616;48.872;9.390;2024-02-26T09:18:24;96632.28;;;7.72;97.41
53719;BME280;39616;48.872;9.390;2024-02-26T09:20:55;96629.41;;;7.69;94.07
53719;BME280;39616;48.872;9.390;2024-02-26T09:23:26;96634.47;;;7.88;94.89
53719;BME280;39616;48.872;9.390;2024-02-26T09:25:57;96635.00;;;7.81;90.79
53719;BME280;39616;48.872;9.390;2024-02-26T09:28:27;96634.63;;;7.91;90.98
53719;BME280;39616;48.872;9.390;2024-02-26T09:30:57;96634.16;;;7.98;86.60
53719;BME280;39616;48.872;9.390;2024-02-26T09:33:28;96637.81;;;7.93;85.18
53719;BME280;39616;48.872;9.390;2024-02-26T09:35:58;96637.78;;;8.02;85.89
53719;BME280;39616;48.872;9.390;2024-02-26T09:38:28;96639.06;;;8.05;84.96
53719;BME280;39616;48.872;9.390;2024-02-26T09:40:59;96629.41;;;8.04;84.15
53719;BME280;39616;48.872;9.390;2024-02-26T09:43:35;96634.63;;;8.09;84.53
53719;BME280;39616;48.872;9.390;2024-02-26T09:46:06;96641.91;;;8.08;84.13
53719;BME280;39616;48.872;9.390;2024-02-26T09:48:38;96639.69;;;8.19;84.89
53719;BME280;39616;48.872;9.390;2024-02-26T09:51:10;96633.44;;;8.27;84.13
53719;BME280;39616;48.872;9.390;2024-02-26T09:53:43;96647.59;;;8.33;84.02
53719;BME280;39616;48.872;9.390;2024-02-26T09:56:15;96645.38;;;8.43;83.11
53719;BME280;39616;48.872;9.390;2024-02-26T09:58:46;96650.94;;;8.38;81.72
53719;BME280;39616;48.872;9.390;2024-02-26T10:01:19;96650.38;;;8.54;80.35
53719;BME280;39616;48.872;9.390;2024-02-26T10:03:57;96661.69;;;8.56;79.64
53719;BME280;39616;48.872;9.390;2024-02-26T10:06:28;96660.25;;;8.58;79.67
53719;BME280;39616;48.872;9.390;2024-02-26T10:08:59;96665.28;;;8.68;79.53
53719;BME280;39616;48.872;9.390;2024-02-26T10:11:30;96663.41;;;8.69;79.25
53719;BME280;39616;48.872;9.390;2024-02-26T10:14:00;96663.19;;;8.74;79.67
53719;BME280;39616;48.872;9.390;2024-02-26T10:16:31;96661.44;;;8.78;81.35
53719;BME280;39616;48.872;9.390;2024-02-26T10:19:03;96653.75;;;8.89;82.59
53719;BME280;39616;48.872;9.390;2024-02-26T10:21:33;96656.03;;;9.08;82.46
53719;BME280;39616;48.872;9.390;2024-02-26T10:24:04;96656.94;;;9.21;81.69
53719;BME280;39616;48.872;9.390;2024-02-26T10:26:35;96661.97;;;9.52;80.65
53719;BME280;39616;48.872;9.390;2024-02-26T10:29:06;96652.84;;;9.77;77.95
53719;BME280;39616;48.872;9.390;2024-02-26T10:31:42;96660.00;;;9.94;77.43
53719;BME280;39616;48.872;9.390;2024-02-26T10:34:14;96660.66;;;10.12;74.51
53719;BME280;39616;48.872;9.390;2024-02-26T10:36:45;96660.75;;;10.36;74.08
53719;BME280;39616;48.872;9.390;2024-02-26T10:39:15;96663.72;;;10.44;72.13
53719;BME280;39616;48.872;9.390;2024-02-26T10:41:46;96657.44;;;10.76;70.65
53719;BME280;39616;48.872;9.390;2024-02-26T10:44:16;96649.50;;;11.08;69.59
53719;BME280;39616;48.872;9.390;2024-02-26T10:46:47;96641.78;;;11.47;67.03
53719;BME280;39616;48.872;9.390;2024-02-26T10:49:21;96647.00;;;11.80;66.36
53719;BME280;39616;48.872;9.390;2024-02-26T10:51:56;96646.72;;;12.25;63.79
53719;BME280;39616;48.872;9.390;2024-02-26T10:54:29;96641.84;;;12.47;63.33
53719;BME280;39616;48.872;9.390;2024-02-26T10:57:00;96643.19;;;13.00;62.36
53719;BME280;39616;48.872;9.390;2024-02-26T10:59:32;96663.34;;;12.99;61.74
53719;BME280;39616;48.872;9.390;2024-02-26T11:02:03;96659.41;;;13.13;58.95
53719;BME280;39616;48.872;9.390;2024-02-26T11:04:34;96662.03;;;13.25;59.00
53719;BME280;39616;48.872;9.390;2024-02-26T11:07:05;96647.72;;;13.28;58.96
53719;BME280;39616;48.872;9.390;2024-02-26T11:09:36;96653.19;;;12.96;58.94
53719;BME280;39616;48.872;9.390;2024-02-26T11:12:11;96651.00;;;13.02;60.76
53719;BME280;39616;48.872;9.390;2024-02-26T11:14:44;96643.38;;;12.76;60.27
53719;BME280;39616;48.872;9.390;2024-02-26T11:17:17;96646.97;;;12.80;60.50
53719;BME280;39616;48.872;9.390;2024-02-26T11:19:50;96655.81;;;12.61;60.06
53719;BME280;39616;48.872;9.390;2024-02-26T11:22:21;96652.75;;;12.63;59.77
53719;BME280;39616;48.872;9.390;2024-02-26T11:24:53;96652.75;;;12.78;60.62
53719;BME280;39616;48.872;9.390;2024-02-26T11:27:27;96658.91;;;13.07;59.40
53719;BME280;39616;48.872;9.390;2024-02-26T11:30:01;96653.81;;;12.90;57.65
53719;BME280;39616;48.872;9.390;2024-02-26T11:32:32;96652.19;;;13.20;58.51
53719;BME280;39616;48.872;9.390;2024-02-26T11:35:05;96657.06;;;13.11;57.61
53719;BME280;39616;48.872;9.390;2024-02-26T11:37:36;96646.00;;;12.72;57.77
53719;BME280;39616;48.872;9.390;2024-02-26T11:40:10;96656.47;;;12.70;59.35
53719;BME280;39616;48.872;9.390;2024-02-26T11:42:45;96651.25;;;12.49;59.73
53719;BME280;39616;48.872;9.390;2024-02-26T11:45:47;96653.88;;;12.46;59.60
53719;BME280;39616;48.872;9.390;2024-02-26T11:48:23;96665.97;;;12.04;59.17
53719;BME280;39616;48.872;9.390;2024-02-26T11:50:55;96659.91;;;12.23;59.14
53719;BME280;39616;48.872;9.390;2024-02-26T11:53:29;96668.44;;;12.38;58.86
53719;BME280;39616;48.872;9.390;2024-02-26T12:01:55;96670.75;;;12.67;56.97
53719;BME280;39616;48.872;9.390;2024-02-26T12:04:26;96665.81;;;12.73;57.01
53719;BME280;39616;48.872;9.390;2024-02-26T12:07:01;96660.66;;;12.68;58.19
53719;BME280;39616;48.872;9.390;2024-02-26T12:09:39;96667.75;;;12.56;58.79
53719;BME280;39616;48.872;9.390;2024-02-26T12:12:17;96666.69;;;12.77;56.68
53719;BME280;39616;48.872;9.390;2024-02-26T12:14:52;96662.69;;;12.87;57.26
53719;BME280;39616;48.872;9.390;2024-02-26T12:17:24;96659.44;;;12.97;57.54
53719;BME280;39616;48.872;9.390;2024-02-26T12:19:54;96668.34;;;13.13;56.54
53719;BME280;39616;48.872;9.390;2024-02-26T12:22:26;96676.09;;;13.27;56.54
53719;BME280;39616;48.872;9.390;2024-02-26T12:24:58;96670.66;;;13.27;57.16
53719;BME280;39616;48.872;9.390;2024-02-26T12:27:29;96680.31;;;13.24;56.35
53719;BME280;39616;48.872;9.390;2024-02-26T12:29:59;96673.00;;;13.44;56.95
53719;BME280;39616;48.872;9.390;2024-02-26T12:32:30;96679.34;;;13.68;56.47
53719;BME280;39616;48.872;9.390;2024-02-26T12:35:00;96682.84;;;13.68;56.25
53719;BME280;39616;48.872;9.390;2024-02-26T12:37:31;96683.31;;;13.70;56.59
53719;BME280;39616;48.872;9.390;2024-02-26T12:40:02;96681.66;;;13.85;55.17
53719;BME280;39616;48.872;9.390;2024-02-26T12:42:32;96681.44;;;13.74;54.97
53719;BME280;39616;48.872;9.390;2024-02-26T12:45:10;96682.97;;;13.56;56.01
53719;BME280;39616;48.872;9.390;2024-02-26T12:47:42;96693.13;;;13.24;57.11
53719;BME280;39616;48.872;9.390;2024-02-26T12:50:13;96689.94;;;13.06;57.89
53719;BME280;39616;48.872;9.390;2024-02-26T12:52:45;96690.03;;;13.10;57.64
53719;BME280;39616;48.872;9.390;2024-02-26T12:55:20;96694.69;;;13.09;56.82
53719;BME280;39616;48.872;9.390;2024-02-26T12:57:51;96688.66;;;13.32;56.53
53719;BME280;39616;48.872;9.390;2024-02-26T13:00:26;96692.41;;;13.43;57.68
53719;BME280;39616;48.872;9.390;2024-02-26T13:02:59;96690.44;;;13.59;56.43
53719;BME280;39616;48.872;9.390;2024-02-26T13:05:30;96687.28;;;13.57;55.67
53719;BME280;39616;48.872;9.390;2024-02-26T13:08:00;96695.91;;;13.78;55.50
53719;BME280;39616;48.872;9.390;2024-02-26T13:10:31;96701.88;;;13.84;54.93
53719;BME280;39616;48.872;9.390;2024-02-26T13:13:02;96700.81;;;13.89;54.91
53719;BME280;39616;48.872;9.390;2024-02-26T13:15:33;96699.72;;;13.74;54.85
53719;BME280;39616;48.872;9.390;2024-02-26T13:18:10;96691.84;;;13.53;54.87
53719;BME280;39616;48.872;9.390;2024-02-26T13:20:41;96699.19;;;13.68;55.62
53719;BME280;39616;48.872;9.390;2024-02-26T13:23:12;96707.31;;;13.84;54.46
53719;BME280;39616;48.872;9.390;2024-02-26T13:25:42;96706.66;;;13.71;54.43
53719;BME280;39616;48.872;9.390;2024-02-26T13:28:18;96704.22;;;13.66;54.60
53719;BME280;39616;48.872;9.390;2024-02-26T13:30:53;96703.78;;;13.64;54.42
53719;BME280;39616;48.872;9.390;2024-02-26T13:33:28;96702.13;;;13.60;55.18